sensor_id;sensor_type;location;lat;lon;timestamp;P1;durP1;ratioP1;P2;durP2;ratioP2
43813;SDS011;29669;55.706;37.656;2023-05-28T00:00:33;5.15;;;2.47;;
43813;SDS011;29669;55.706;37.656;2023-05-28T00:03:02;2.97;;;1.95;;
43813;SDS011;29669;55.706;37.656;2023-05-28T00:05:30;4.93;;;2.30;;
43813;SDS011;29669;55.706;37.656;2023-05-28T00:07:58;3.90;;;2.20;;
43813;SDS011;29669;55.706;37.656;2023-05-28T00:10:28;5.80;;;2.28;;
43813;SDS011;29669;55.706;37.656;2023-05-28T00:12:57;3.20;;;2.55;;
43813;SDS011;29669;55.706;37.656;2023-05-28T00:15:25;4.18;;;2.50;;
43813;SDS011;29669;55.706;37.656;2023-05-28T00:17:54;2.92;;;2.35;;
43813;SDS011;29669;55.706;37.656;2023-05-28T00:20:24;4.68;;;2.45;;
43813;SDS011;29669;55.706;37.656;2023-05-28T00:22:53;2.70;;;2.10;;
43813;SDS011;29669;55.706;37.656;2023-05-28T00:25:21;2.97;;;2.08;;
43813;SDS011;29669;55.706;37.656;2023-05-28T00:27:49;1.55;;;1.23;;
43813;SDS011;29669;55.706;37.656;2023-05-28T00:30:17;2.15;;;1.92;;
43813;SDS011;29669;55.706;37.656;2023-05-28T00:32:46;7.68;;;2.47;;
43813;SDS011;29669;55.706;37.656;2023-05-28T00:35:14;6.63;;;2.08;;
43813;SDS011;29669;55.706;37.656;2023-05-28T00:37:42;4.38;;;1.92;;
43813;SDS011;29669;55.706;37.656;2023-05-28T00:40:10;2.65;;;1.90;;
43813;SDS011;29669;55.706;37.656;2023-05-28T00:42:39;3.40;;;2.10;;
43813;SDS011;29669;55.706;37.656;2023-05-28T00:45:08;3.22;;;2.13;;
43813;SDS011;29669;55.706;37.656;2023-05-28T00:47:38;2.90;;;1.98;;
43813;SDS011;29669;55.706;37.656;2023-05-28T00:50:08;2.65;;;2.20;;
43813;SDS011;29669;55.706;37.656;2023-05-28T00:52:37;2.35;;;2.15;;
43813;SDS011;29669;55.706;37.656;2023-05-28T00:55:09;5.43;;;2.17;;
43813;SDS011;29669;55.706;37.656;2023-05-28T00:57:42;5.90;;;2.08;;
43813;SDS011;29669;55.706;37.656;2023-05-28T01:00:11;5.70;;;2.17;;
43813;SDS011;29669;55.706;37.656;2023-05-28T01:02:41;2.72;;;2.20;;
43813;SDS011;29669;55.706;37.656;2023-05-28T01:05:12;3.75;;;2.17;;
43813;SDS011;29669;55.706;37.656;2023-05-28T01:07:41;4.10;;;2.28;;
43813;SDS011;29669;55.706;37.656;2023-05-28T01:10:09;2.58;;;1.77;;
43813;SDS011;29669;55.706;37.656;2023-05-28T01:12:37;4.22;;;2.10;;
43813;SDS011;29669;55.706;37.656;2023-05-28T01:15:06;8.05;;;2.03;;
43813;SDS011;29669;55.706;37.656;2023-05-28T01:17:35;16.67;;;2.35;;
43813;SDS011;29669;55.706;37.656;2023-05-28T01:20:06;1.88;;;1.77;;
43813;SDS011;29669;55.706;37.656;2023-05-28T01:22:38;3.70;;;1.80;;
43813;SDS011;29669;55.706;37.656;2023-05-28T01:25:13;7.82;;;2.22;;
43813;SDS011;29669;55.706;37.656;2023-05-28T01:27:44;4.38;;;2.13;;
43813;SDS011;29669;55.706;37.656;2023-05-28T01:30:13;4.72;;;2.28;;
43813;SDS011;29669;55.706;37.656;2023-05-28T01:32:42;2.80;;;1.85;;
43813;SDS011;29669;55.706;37.656;2023-05-28T01:35:10;3.83;;;1.88;;
43813;SDS011;29669;55.706;37.656;2023-05-28T01:37:44;6.00;;;2.13;;
43813;SDS011;29669;55.706;37.656;2023-05-28T01:40:16;6.82;;;1.85;;
43813;SDS011;29669;55.706;37.656;2023-05-28T01:42:46;4.07;;;1.95;;
43813;SDS011;29669;55.706;37.656;2023-05-28T01:45:17;2.58;;;1.88;;
43813;SDS011;29669;55.706;37.656;2023-05-28T01:47:46;3.88;;;2.00;;
43813;SDS011;29669;55.706;37.656;2023-05-28T01:50:14;4.07;;;1.90;;
43813;SDS011;29669;55.706;37.656;2023-05-28T01:52:43;4.00;;;1.65;;
43813;SDS011;29669;55.706;37.656;2023-05-28T01:55:11;2.22;;;1.88;;
43813;SDS011;29669;55.706;37.656;2023-05-28T01:57:43;2.95;;;2.22;;
43813;SDS011;29669;55.706;37.656;2023-05-28T02:00:12;4.57;;;1.75;;
43813;SDS011;29669;55.706;37.656;2023-05-28T02:02:42;4.03;;;1.88;;
43813;SDS011;29669;55.706;37.656;2023-05-28T02:05:15;6.90;;;1.88;;
43813;SDS011;29669;55.706;37.656;2023-05-28T02:07:44;2.45;;;1.58;;
43813;SDS011;29669;55.706;37.656;2023-05-28T02:10:13;2.63;;;1.95;;
43813;SDS011;29669;55.706;37.656;2023-05-28T02:12:41;5.72;;;1.95;;
43813;SDS011;29669;55.706;37.656;2023-05-28T02:15:10;3.03;;;1.80;;
43813;SDS011;29669;55.706;37.656;2023-05-28T02:17:39;3.10;;;2.05;;
43813;SDS011;29669;55.706;37.656;2023-05-28T02:20:28;2.70;;;1.70;;
43813;SDS011;29669;55.706;37.656;2023-05-28T02:22:56;4.38;;;2.28;;
43813;SDS011;29669;55.706;37.656;2023-05-28T02:25:24;2.33;;;1.50;;
43813;SDS011;29669;55.706;37.656;2023-05-28T02:27:53;3.08;;;1.80;;
43813;SDS011;29669;55.706;37.656;2023-05-28T02:30:21;1.63;;;1.48;;
43813;SDS011;29669;55.706;37.656;2023-05-28T02:32:49;6.55;;;2.30;;
43813;SDS011;29669;55.706;37.656;2023-05-28T02:35:17;2.10;;;1.40;;
43813;SDS011;29669;55.706;37.656;2023-05-28T02:37:49;2.85;;;1.75;;
43813;SDS011;29669;55.706;37.656;2023-05-28T02:40:18;3.58;;;1.85;;
43813;SDS011;29669;55.706;37.656;2023-05-28T02:42:47;1.63;;;1.35;;
43813;SDS011;29669;55.706;37.656;2023-05-28T02:45:15;3.05;;;1.40;;
43813;SDS011;29669;55.706;37.656;2023-05-28T02:47:42;4.63;;;1.75;;
43813;SDS011;29669;55.706;37.656;2023-05-28T02:50:11;1.63;;;1.35;;
43813;SDS011;29669;55.706;37.656;2023-05-28T02:53:00;4.05;;;1.70;;
43813;SDS011;29669;55.706;37.656;2023-05-28T02:55:28;1.67;;;1.50;;
43813;SDS011;29669;55.706;37.656;2023-05-28T02:57:56;2.10;;;1.60;;
43813;SDS011;29669;55.706;37.656;2023-05-28T03:00:26;5.85;;;1.77;;
43813;SDS011;29669;55.706;37.656;2023-05-28T03:02:56;2.45;;;1.60;;
43813;SDS011;29669;55.706;37.656;2023-05-28T03:05:25;2.40;;;1.50;;
43813;SDS011;29669;55.706;37.656;2023-05-28T03:07:54;2.83;;;1.77;;
43813;SDS011;29669;55.706;37.656;2023-05-28T03:10:23;3.58;;;1.38;;
43813;SDS011;29669;55.706;37.656;2023-05-28T03:12:51;2.97;;;1.35;;
43813;SDS011;29669;55.706;37.656;2023-05-28T03:15:20;1.77;;;1.52;;
43813;SDS011;29669;55.706;37.656;2023-05-28T03:17:48;2.47;;;1.30;;
43813;SDS011;29669;55.706;37.656;2023-05-28T03:20:16;2.15;;;1.52;;
43813;SDS011;29669;55.706;37.656;2023-05-28T03:22:45;2.47;;;1.40;;
43813;SDS011;29669;55.706;37.656;2023-05-28T03:25:17;3.35;;;1.83;;
43813;SDS011;29669;55.706;37.656;2023-05-28T03:27:48;6.57;;;1.92;;
43813;SDS011;29669;55.706;37.656;2023-05-28T03:30:17;8.30;;;1.80;;
43813;SDS011;29669;55.706;37.656;2023-05-28T03:32:49;2.58;;;1.40;;
43813;SDS011;29669;55.706;37.656;2023-05-28T03:35:18;3.65;;;1.65;;
43813;SDS011;29669;55.706;37.656;2023-05-28T03:37:47;2.60;;;1.50;;
43813;SDS011;29669;55.706;37.656;2023-05-28T03:40:16;3.47;;;1.95;;
43813;SDS011;29669;55.706;37.656;2023-05-28T03:42:44;2.22;;;1.95;;
43813;SDS011;29669;55.706;37.656;2023-05-28T03:45:13;4.93;;;1.95;;
43813;SDS011;29669;55.706;37.656;2023-05-28T03:47:41;2.78;;;1.80;;
43813;SDS011;29669;55.706;37.656;2023-05-28T03:50:09;5.53;;;2.00;;
43813;SDS011;29669;55.706;37.656;2023-05-28T03:52:37;3.45;;;1.90;;
43813;SDS011;29669;55.706;37.656;2023-05-28T03:55:05;3.13;;;1.48;;
43813;SDS011;29669;55.706;37.656;2023-05-28T03:57:36;3.08;;;2.10;;
43813;SDS011;29669;55.706;37.656;2023-05-28T04:00:06;2.80;;;1.75;;
43813;SDS011;29669;55.706;37.656;2023-05-28T04:02:43;4.43;;;2.05;;
43813;SDS011;29669;55.706;37.656;2023-05-28T04:05:11;6.75;;;2.30;;
43813;SDS011;29669;55.706;37.656;2023-05-28T04:07:40;2.25;;;1.67;;
43813;SDS011;29669;55.706;37.656;2023-05-28T04:10:08;2.67;;;1.88;;
43813;SDS011;29669;55.706;37.656;2023-05-28T04:12:37;4.80;;;2.28;;
43813;SDS011;29669;55.706;37.656;2023-05-28T04:15:06;3.20;;;2.08;;
43813;SDS011;29669;55.706;37.656;2023-05-28T04:17:35;6.05;;;1.92;;
43813;SDS011;29669;55.706;37.656;2023-05-28T04:20:04;2.95;;;1.80;;
43813;SDS011;29669;55.706;37.656;2023-05-28T04:22:33;4.93;;;1.70;;
43813;SDS011;29669;55.706;37.656;2023-05-28T04:25:01;4.88;;;2.20;;
43813;SDS011;29669;55.706;37.656;2023-05-28T04:27:30;3.47;;;1.73;;
43813;SDS011;29669;55.706;37.656;2023-05-28T04:30:00;2.67;;;1.80;;
43813;SDS011;29669;55.706;37.656;2023-05-28T04:32:37;4.20;;;2.70;;
43813;SDS011;29669;55.706;37.656;2023-05-28T04:35:08;6.50;;;2.38;;
43813;SDS011;29669;55.706;37.656;2023-05-28T04:37:36;5.70;;;1.90;;
43813;SDS011;29669;55.706;37.656;2023-05-28T04:40:07;5.32;;;2.15;;
43813;SDS011;29669;55.706;37.656;2023-05-28T04:42:39;3.22;;;2.05;;
43813;SDS011;29669;55.706;37.656;2023-05-28T04:45:08;3.15;;;2.25;;
43813;SDS011;29669;55.706;37.656;2023-05-28T04:47:38;4.53;;;2.45;;
43813;SDS011;29669;55.706;37.656;2023-05-28T04:50:06;2.65;;;1.98;;
43813;SDS011;29669;55.706;37.656;2023-05-28T04:52:35;4.18;;;2.10;;
43813;SDS011;29669;55.706;37.656;2023-05-28T04:55:03;2.53;;;2.10;;
43813;SDS011;29669;55.706;37.656;2023-05-28T04:57:33;2.97;;;1.70;;
43813;SDS011;29669;55.706;37.656;2023-05-28T05:00:02;3.80;;;2.00;;
43813;SDS011;29669;55.706;37.656;2023-05-28T05:02:33;6.13;;;2.40;;
43813;SDS011;29669;55.706;37.656;2023-05-28T05:05:02;8.25;;;2.25;;
43813;SDS011;29669;55.706;37.656;2023-05-28T05:07:31;2.63;;;2.00;;
43813;SDS011;29669;55.706;37.656;2023-05-28T05:09:59;4.65;;;2.38;;
43813;SDS011;29669;55.706;37.656;2023-05-28T05:12:29;3.67;;;2.17;;
43813;SDS011;29669;55.706;37.656;2023-05-28T05:14:57;4.20;;;1.83;;
43813;SDS011;29669;55.706;37.656;2023-05-28T05:17:26;3.63;;;2.30;;
43813;SDS011;29669;55.706;37.656;2023-05-28T05:19:53;3.63;;;1.85;;
43813;SDS011;29669;55.706;37.656;2023-05-28T05:22:23;3.63;;;2.55;;
43813;SDS011;29669;55.706;37.656;2023-05-28T05:24:51;3.08;;;2.10;;
43813;SDS011;29669;55.706;37.656;2023-05-28T05:27:20;2.88;;;2.40;;
43813;SDS011;29669;55.706;37.656;2023-05-28T05:29:48;3.63;;;2.40;;
43813;SDS011;29669;55.706;37.656;2023-05-28T05:32:17;2.83;;;1.90;;
43813;SDS011;29669;55.706;37.656;2023-05-28T05:34:46;3.75;;;2.70;;
43813;SDS011;29669;55.706;37.656;2023-05-28T05:37:26;3.05;;;2.00;;
43813;SDS011;29669;55.706;37.656;2023-05-28T05:40:13;5.50;;;2.28;;
43813;SDS011;29669;55.706;37.656;2023-05-28T05:42:51;3.30;;;2.15;;
43813;SDS011;29669;55.706;37.656;2023-05-28T05:45:19;6.47;;;2.97;;
43813;SDS011;29669;55.706;37.656;2023-05-28T05:47:47;9.85;;;3.20;;
43813;SDS011;29669;55.706;37.656;2023-05-28T05:50:15;3.38;;;2.25;;
43813;SDS011;29669;55.706;37.656;2023-05-28T05:52:44;4.15;;;2.17;;
43813;SDS011;29669;55.706;37.656;2023-05-28T05:55:12;2.20;;;1.85;;
43813;SDS011;29669;55.706;37.656;2023-05-28T05:57:39;2.28;;;1.75;;
43813;SDS011;29669;55.706;37.656;2023-05-28T06:00:11;6.00;;;2.47;;
43813;SDS011;29669;55.706;37.656;2023-05-28T06:02:40;3.67;;;2.30;;
43813;SDS011;29669;55.706;37.656;2023-05-28T06:05:27;7.68;;;3.38;;
43813;SDS011;29669;55.706;37.656;2023-05-28T06:08:04;3.78;;;2.65;;
43813;SDS011;29669;55.706;37.656;2023-05-28T06:10:54;6.03;;;2.70;;
43813;SDS011;29669;55.706;37.656;2023-05-28T06:13:22;5.72;;;2.33;;
43813;SDS011;29669;55.706;37.656;2023-05-28T06:15:50;3.38;;;2.53;;
43813;SDS011;29669;55.706;37.656;2023-05-28T06:18:18;5.38;;;2.42;;
43813;SDS011;29669;55.706;37.656;2023-05-28T06:20:46;3.40;;;2.40;;
43813;SDS011;29669;55.706;37.656;2023-05-28T06:23:14;8.00;;;2.55;;
43813;SDS011;29669;55.706;37.656;2023-05-28T06:25:43;4.00;;;2.30;;
43813;SDS011;29669;55.706;37.656;2023-05-28T06:28:11;4.90;;;2.38;;
43813;SDS011;29669;55.706;37.656;2023-05-28T06:30:39;9.57;;;2.42;;
43813;SDS011;29669;55.706;37.656;2023-05-28T06:33:08;4.32;;;2.40;;
43813;SDS011;29669;55.706;37.656;2023-05-28T06:35:37;5.82;;;2.83;;
43813;SDS011;29669;55.706;37.656;2023-05-28T06:38:04;5.07;;;2.40;;
43813;SDS011;29669;55.706;37.656;2023-05-28T06:40:32;8.25;;;2.90;;
43813;SDS011;29669;55.706;37.656;2023-05-28T06:43:00;4.30;;;2.55;;
43813;SDS011;29669;55.706;37.656;2023-05-28T06:45:44;2.45;;;2.22;;
43813;SDS011;29669;55.706;37.656;2023-05-28T06:48:12;9.38;;;3.05;;
43813;SDS011;29669;55.706;37.656;2023-05-28T06:50:40;5.68;;;3.05;;
43813;SDS011;29669;55.706;37.656;2023-05-28T06:53:07;5.53;;;2.50;;
43813;SDS011;29669;55.706;37.656;2023-05-28T06:55:35;5.47;;;2.55;;
43813;SDS011;29669;55.706;37.656;2023-05-28T06:58:26;5.68;;;3.20;;
43813;SDS011;29669;55.706;37.656;2023-05-28T07:01:08;4.63;;;2.78;;
43813;SDS011;29669;55.706;37.656;2023-05-28T07:03:54;5.95;;;2.60;;
43813;SDS011;29669;55.706;37.656;2023-05-28T07:06:34;7.07;;;3.00;;
43813;SDS011;29669;55.706;37.656;2023-05-28T07:09:03;10.35;;;3.30;;
43813;SDS011;29669;55.706;37.656;2023-05-28T07:11:32;6.43;;;2.35;;
43813;SDS011;29669;55.706;37.656;2023-05-28T07:14:00;3.42;;;2.38;;
43813;SDS011;29669;55.706;37.656;2023-05-28T07:16:28;4.75;;;2.00;;
43813;SDS011;29669;55.706;37.656;2023-05-28T07:18:56;4.18;;;2.13;;
43813;SDS011;29669;55.706;37.656;2023-05-28T07:21:25;7.40;;;3.20;;
43813;SDS011;29669;55.706;37.656;2023-05-28T07:23:54;5.15;;;2.53;;
43813;SDS011;29669;55.706;37.656;2023-05-28T07:26:22;4.18;;;1.98;;
43813;SDS011;29669;55.706;37.656;2023-05-28T07:28:50;6.03;;;2.88;;
43813;SDS011;29669;55.706;37.656;2023-05-28T07:32:00;4.30;;;2.78;;
43813;SDS011;29669;55.706;37.656;2023-05-28T07:34:49;2.88;;;2.45;;
43813;SDS011;29669;55.706;37.656;2023-05-28T07:37:19;6.90;;;2.97;;
43813;SDS011;29669;55.706;37.656;2023-05-28T07:39:47;7.18;;;2.70;;
43813;SDS011;29669;55.706;37.656;2023-05-28T07:42:15;11.20;;;3.03;;
43813;SDS011;29669;55.706;37.656;2023-05-28T07:44:43;7.75;;;2.80;;
43813;SDS011;29669;55.706;37.656;2023-05-28T07:47:12;4.35;;;2.30;;
43813;SDS011;29669;55.706;37.656;2023-05-28T07:50:02;10.60;;;2.90;;
43813;SDS011;29669;55.706;37.656;2023-05-28T07:52:56;9.32;;;3.10;;
43813;SDS011;29669;55.706;37.656;2023-05-28T07:55:24;6.72;;;3.50;;
43813;SDS011;29669;55.706;37.656;2023-05-28T07:57:53;2.53;;;2.28;;
43813;SDS011;29669;55.706;37.656;2023-05-28T08:00:21;5.28;;;2.42;;
43813;SDS011;29669;55.706;37.656;2023-05-28T08:02:52;4.30;;;2.25;;
43813;SDS011;29669;55.706;37.656;2023-05-28T08:05:32;5.10;;;2.78;;
43813;SDS011;29669;55.706;37.656;2023-05-28T08:08:00;4.63;;;2.30;;
43813;SDS011;29669;55.706;37.656;2023-05-28T08:10:29;4.57;;;2.35;;
43813;SDS011;29669;55.706;37.656;2023-05-28T08:12:57;3.63;;;2.22;;
43813;SDS011;29669;55.706;37.656;2023-05-28T08:15:25;4.40;;;2.10;;
43813;SDS011;29669;55.706;37.656;2023-05-28T08:17:56;5.75;;;2.30;;
43813;SDS011;29669;55.706;37.656;2023-05-28T08:20:24;9.48;;;2.90;;
43813;SDS011;29669;55.706;37.656;2023-05-28T08:23:13;2.90;;;2.30;;
43813;SDS011;29669;55.706;37.656;2023-05-28T08:25:42;4.38;;;2.20;;
43813;SDS011;29669;55.706;37.656;2023-05-28T08:28:17;3.60;;;2.50;;
43813;SDS011;29669;55.706;37.656;2023-05-28T08:30:47;3.75;;;2.28;;
43813;SDS011;29669;55.706;37.656;2023-05-28T08:33:37;8.95;;;3.40;;
43813;SDS011;29669;55.706;37.656;2023-05-28T08:36:05;4.90;;;2.88;;
43813;SDS011;29669;55.706;37.656;2023-05-28T08:38:35;13.57;;;3.10;;
43813;SDS011;29669;55.706;37.656;2023-05-28T08:41:03;4.72;;;2.55;;
43813;SDS011;29669;55.706;37.656;2023-05-28T08:43:33;3.85;;;2.60;;
43813;SDS011;29669;55.706;37.656;2023-05-28T08:46:00;11.15;;;3.67;;
43813;SDS011;29669;55.706;37.656;2023-05-28T08:48:37;13.40;;;3.30;;
43813;SDS011;29669;55.706;37.656;2023-05-28T08:51:08;4.60;;;2.90;;
43813;SDS011;29669;55.706;37.656;2023-05-28T08:53:46;4.38;;;2.97;;
43813;SDS011;29669;55.706;37.656;2023-05-28T08:56:20;11.73;;;2.78;;
43813;SDS011;29669;55.706;37.656;2023-05-28T08:58:49;4.20;;;2.80;;
43813;SDS011;29669;55.706;37.656;2023-05-28T09:01:19;8.60;;;3.67;;
43813;SDS011;29669;55.706;37.656;2023-05-28T09:04:02;14.35;;;4.68;;
43813;SDS011;29669;55.706;37.656;2023-05-28T09:06:37;8.27;;;3.93;;
43813;SDS011;29669;55.706;37.656;2023-05-28T09:09:10;16.30;;;4.93;;
43813;SDS011;29669;55.706;37.656;2023-05-28T09:11:48;5.28;;;3.53;;
43813;SDS011;29669;55.706;37.656;2023-05-28T09:14:17;7.05;;;3.95;;
43813;SDS011;29669;55.706;37.656;2023-05-28T09:16:49;8.45;;;4.38;;
43813;SDS011;29669;55.706;37.656;2023-05-28T09:19:21;5.45;;;3.20;;
43813;SDS011;29669;55.706;37.656;2023-05-28T09:21:54;4.53;;;2.97;;
43813;SDS011;29669;55.706;37.656;2023-05-28T09:24:34;2.50;;;2.08;;
43813;SDS011;29669;55.706;37.656;2023-05-28T09:27:26;2.88;;;2.58;;
43813;SDS011;29669;55.706;37.656;2023-05-28T09:29:55;2.17;;;1.80;;
43813;SDS011;29669;55.706;37.656;2023-05-28T09:32:23;4.40;;;2.60;;
43813;SDS011;29669;55.706;37.656;2023-05-28T09:34:50;3.40;;;2.55;;
43813;SDS011;29669;55.706;37.656;2023-05-28T09:37:18;7.88;;;2.63;;
43813;SDS011;29669;55.706;37.656;2023-05-28T09:39:48;3.78;;;2.40;;
43813;SDS011;29669;55.706;37.656;2023-05-28T09:42:32;3.80;;;2.97;;
43813;SDS011;29669;55.706;37.656;2023-05-28T09:45:10;6.30;;;2.75;;
43813;SDS011;29669;55.706;37.656;2023-05-28T09:47:42;4.55;;;2.63;;
43813;SDS011;29669;55.706;37.656;2023-05-28T09:50:13;8.25;;;2.63;;
43813;SDS011;29669;55.706;37.656;2023-05-28T09:52:42;6.38;;;2.80;;
43813;SDS011;29669;55.706;37.656;2023-05-28T09:55:16;6.43;;;2.72;;
43813;SDS011;29669;55.706;37.656;2023-05-28T09:58:03;4.47;;;2.90;;
43813;SDS011;29669;55.706;37.656;2023-05-28T10:00:32;4.00;;;2.90;;
43813;SDS011;29669;55.706;37.656;2023-05-28T10:05:39;5.45;;;2.83;;
43813;SDS011;29669;55.706;37.656;2023-05-28T10:08:13;5.03;;;2.50;;
43813;SDS011;29669;55.706;37.656;2023-05-28T10:10:44;4.60;;;2.80;;
43813;SDS011;29669;55.706;37.656;2023-05-28T10:13:15;4.10;;;2.90;;
43813;SDS011;29669;55.706;37.656;2023-05-28T10:15:43;3.25;;;2.65;;
43813;SDS011;29669;55.706;37.656;2023-05-28T10:18:13;6.18;;;3.28;;
43813;SDS011;29669;55.706;37.656;2023-05-28T10:20:42;6.68;;;2.95;;
43813;SDS011;29669;55.706;37.656;2023-05-28T10:23:10;7.50;;;2.60;;
43813;SDS011;29669;55.706;37.656;2023-05-28T10:25:39;4.22;;;3.17;;
43813;SDS011;29669;55.706;37.656;2023-05-28T10:28:07;6.13;;;2.30;;
43813;SDS011;29669;55.706;37.656;2023-05-28T10:30:35;5.88;;;2.85;;
43813;SDS011;29669;55.706;37.656;2023-05-28T10:33:07;3.97;;;2.72;;
43813;SDS011;29669;55.706;37.656;2023-05-28T10:35:50;4.65;;;2.50;;
43813;SDS011;29669;55.706;37.656;2023-05-28T10:38:21;3.90;;;2.38;;
43813;SDS011;29669;55.706;37.656;2023-05-28T10:40:49;4.32;;;2.50;;
43813;SDS011;29669;55.706;37.656;2023-05-28T10:46:09;3.35;;;2.75;;
43813;SDS011;29669;55.706;37.656;2023-05-28T10:54:47;4.03;;;2.35;;
43813;SDS011;29669;55.706;37.656;2023-05-28T10:57:20;3.30;;;2.60;;
43813;SDS011;29669;55.706;37.656;2023-05-28T11:02:23;4.32;;;2.45;;
43813;SDS011;29669;55.706;37.656;2023-05-28T11:05:01;2.85;;;2.30;;
43813;SDS011;29669;55.706;37.656;2023-05-28T11:07:36;2.93;;;2.30;;
43813;SDS011;29669;55.706;37.656;2023-05-28T11:10:07;5.20;;;2.47;;
43813;SDS011;29669;55.706;37.656;2023-05-28T11:12:44;3.58;;;2.55;;
43813;SDS011;29669;55.706;37.656;2023-05-28T11:15:15;3.88;;;2.70;;
43813;SDS011;29669;55.706;37.656;2023-05-28T11:17:43;3.67;;;2.65;;
43813;SDS011;29669;55.706;37.656;2023-05-28T11:20:22;3.78;;;2.60;;
43813;SDS011;29669;55.706;37.656;2023-05-28T11:22:55;4.22;;;2.15;;
43813;SDS011;29669;55.706;37.656;2023-05-28T11:25:23;3.10;;;2.45;;
43813;SDS011;29669;55.706;37.656;2023-05-28T11:27:54;4.97;;;2.42;;
43813;SDS011;29669;55.706;37.656;2023-05-28T11:30:24;4.13;;;2.42;;
43813;SDS011;29669;55.706;37.656;2023-05-28T11:32:53;2.35;;;2.15;;
43813;SDS011;29669;55.706;37.656;2023-05-28T11:35:21;4.57;;;2.35;;
43813;SDS011;29669;55.706;37.656;2023-05-28T11:37:49;4.32;;;2.35;;
43813;SDS011;29669;55.706;37.656;2023-05-28T11:40:17;4.78;;;2.40;;
43813;SDS011;29669;55.706;37.656;2023-05-28T11:42:46;4.47;;;2.17;;
43813;SDS011;29669;55.706;37.656;2023-05-28T11:45:13;4.55;;;2.03;;
43813;SDS011;29669;55.706;37.656;2023-05-28T11:47:41;3.17;;;2.30;;
43813;SDS011;29669;55.706;37.656;2023-05-28T11:50:14;3.17;;;2.20;;
43813;SDS011;29669;55.706;37.656;2023-05-28T11:52:43;5.18;;;2.50;;
43813;SDS011;29669;55.706;37.656;2023-05-28T11:55:11;4.00;;;2.33;;
43813;SDS011;29669;55.706;37.656;2023-05-28T11:57:50;2.38;;;2.13;;
43813;SDS011;29669;55.706;37.656;2023-05-28T12:00:29;3.88;;;1.90;;
43813;SDS011;29669;55.706;37.656;2023-05-28T12:03:02;3.63;;;1.98;;
43813;SDS011;29669;55.706;37.656;2023-05-28T12:05:35;2.33;;;1.85;;
43813;SDS011;29669;55.706;37.656;2023-05-28T12:08:05;4.80;;;2.83;;
43813;SDS011;29669;55.706;37.656;2023-05-28T12:10:33;3.25;;;2.42;;
43813;SDS011;29669;55.706;37.656;2023-05-28T12:13:00;5.57;;;3.20;;
43813;SDS011;29669;55.706;37.656;2023-05-28T12:15:29;3.95;;;2.83;;
43813;SDS011;29669;55.706;37.656;2023-05-28T12:17:57;14.35;;;2.45;;
43813;SDS011;29669;55.706;37.656;2023-05-28T12:20:29;20.58;;;2.70;;
43813;SDS011;29669;55.706;37.656;2023-05-28T12:23:00;10.80;;;1.80;;
43813;SDS011;29669;55.706;37.656;2023-05-28T12:28:11;9.05;;;2.35;;
43813;SDS011;29669;55.706;37.656;2023-05-28T12:30:41;2.83;;;1.98;;
43813;SDS011;29669;55.706;37.656;2023-05-28T12:33:11;2.60;;;1.80;;
43813;SDS011;29669;55.706;37.656;2023-05-28T12:35:39;4.38;;;1.90;;
43813;SDS011;29669;55.706;37.656;2023-05-28T12:38:07;1.73;;;1.33;;
43813;SDS011;29669;55.706;37.656;2023-05-28T12:40:36;6.70;;;1.60;;
43813;SDS011;29669;55.706;37.656;2023-05-28T12:43:04;4.82;;;1.90;;
43813;SDS011;29669;55.706;37.656;2023-05-28T12:45:33;2.10;;;1.90;;
43813;SDS011;29669;55.706;37.656;2023-05-28T12:48:01;2.58;;;1.60;;
43813;SDS011;29669;55.706;37.656;2023-05-28T12:50:29;6.85;;;1.48;;
43813;SDS011;29669;55.706;37.656;2023-05-28T12:52:57;3.80;;;2.33;;
43813;SDS011;29669;55.706;37.656;2023-05-28T12:55:25;4.05;;;2.60;;
43813;SDS011;29669;55.706;37.656;2023-05-28T12:57:53;6.18;;;2.60;;
43813;SDS011;29669;55.706;37.656;2023-05-28T13:00:20;5.20;;;2.40;;
43813;SDS011;29669;55.706;37.656;2023-05-28T13:02:48;12.43;;;2.40;;
43813;SDS011;29669;55.706;37.656;2023-05-28T13:05:16;2.92;;;1.73;;
43813;SDS011;29669;55.706;37.656;2023-05-28T13:07:44;14.93;;;2.28;;
43813;SDS011;29669;55.706;37.656;2023-05-28T13:10:12;10.60;;;2.08;;
43813;SDS011;29669;55.706;37.656;2023-05-28T13:12:41;2.47;;;1.70;;
43813;SDS011;29669;55.706;37.656;2023-05-28T13:15:09;2.88;;;1.92;;
43813;SDS011;29669;55.706;37.656;2023-05-28T13:17:39;2.90;;;1.60;;
43813;SDS011;29669;55.706;37.656;2023-05-28T13:20:07;1.95;;;1.30;;
43813;SDS011;29669;55.706;37.656;2023-05-28T13:22:38;3.58;;;1.95;;
43813;SDS011;29669;55.706;37.656;2023-05-28T13:25:07;3.05;;;2.05;;
43813;SDS011;29669;55.706;37.656;2023-05-28T13:27:35;3.67;;;2.25;;
43813;SDS011;29669;55.706;37.656;2023-05-28T13:30:03;6.68;;;2.55;;
43813;SDS011;29669;55.706;37.656;2023-05-28T13:32:33;2.03;;;1.80;;
43813;SDS011;29669;55.706;37.656;2023-05-28T13:35:01;1.98;;;1.83;;
43813;SDS011;29669;55.706;37.656;2023-05-28T13:37:32;8.07;;;2.10;;
43813;SDS011;29669;55.706;37.656;2023-05-28T13:40:01;9.75;;;2.35;;
43813;SDS011;29669;55.706;37.656;2023-05-28T13:42:33;7.93;;;3.60;;
43813;SDS011;29669;55.706;37.656;2023-05-28T13:45:02;4.10;;;2.15;;
43813;SDS011;29669;55.706;37.656;2023-05-28T13:47:32;3.60;;;1.70;;
43813;SDS011;29669;55.706;37.656;2023-05-28T13:50:00;2.47;;;2.05;;
43813;SDS011;29669;55.706;37.656;2023-05-28T13:52:31;1.83;;;1.60;;
43813;SDS011;29669;55.706;37.656;2023-05-28T13:54:59;3.10;;;2.22;;
43813;SDS011;29669;55.706;37.656;2023-05-28T13:57:29;3.05;;;1.60;;
43813;SDS011;29669;55.706;37.656;2023-05-28T13:59:57;1.40;;;1.30;;
43813;SDS011;29669;55.706;37.656;2023-05-28T14:02:36;1.65;;;1.33;;
43813;SDS011;29669;55.706;37.656;2023-05-28T14:05:04;3.53;;;1.98;;
43813;SDS011;29669;55.706;37.656;2023-05-28T14:07:33;1.35;;;1.25;;
43813;SDS011;29669;55.706;37.656;2023-05-28T14:10:01;2.25;;;1.63;;
43813;SDS011;29669;55.706;37.656;2023-05-28T14:12:30;2.47;;;1.40;;
43813;SDS011;29669;55.706;37.656;2023-05-28T14:14:58;1.95;;;1.40;;
43813;SDS011;29669;55.706;37.656;2023-05-28T14:17:26;2.80;;;1.23;;
43813;SDS011;29669;55.706;37.656;2023-05-28T14:19:54;3.92;;;1.98;;
43813;SDS011;29669;55.706;37.656;2023-05-28T14:22:22;5.72;;;2.20;;
43813;SDS011;29669;55.706;37.656;2023-05-28T14:24:49;2.90;;;1.85;;
43813;SDS011;29669;55.706;37.656;2023-05-28T14:27:17;3.10;;;1.80;;
43813;SDS011;29669;55.706;37.656;2023-05-28T14:29:45;2.45;;;1.67;;
43813;SDS011;29669;55.706;37.656;2023-05-28T14:32:12;5.53;;;1.90;;
43813;SDS011;29669;55.706;37.656;2023-05-28T14:34:41;3.95;;;2.00;;
43813;SDS011;29669;55.706;37.656;2023-05-28T14:37:12;5.95;;;1.90;;
43813;SDS011;29669;55.706;37.656;2023-05-28T14:39:39;2.55;;;1.65;;
43813;SDS011;29669;55.706;37.656;2023-05-28T14:42:07;4.50;;;2.20;;
43813;SDS011;29669;55.706;37.656;2023-05-28T14:44:35;4.72;;;2.22;;
43813;SDS011;29669;55.706;37.656;2023-05-28T14:47:03;4.78;;;2.10;;
43813;SDS011;29669;55.706;37.656;2023-05-28T14:49:34;4.90;;;2.00;;
43813;SDS011;29669;55.706;37.656;2023-05-28T14:52:19;5.72;;;1.98;;
43813;SDS011;29669;55.706;37.656;2023-05-28T14:54:50;1.77;;;1.65;;
43813;SDS011;29669;55.706;37.656;2023-05-28T14:57:22;3.22;;;1.88;;
43813;SDS011;29669;55.706;37.656;2023-05-28T14:59:52;3.28;;;1.67;;
43813;SDS011;29669;55.706;37.656;2023-05-28T15:02:21;4.43;;;2.22;;
43813;SDS011;29669;55.706;37.656;2023-05-28T15:04:49;3.22;;;2.00;;
43813;SDS011;29669;55.706;37.656;2023-05-28T15:07:17;7.47;;;4.47;;
43813;SDS011;29669;55.706;37.656;2023-05-28T15:09:44;1.77;;;1.67;;